sensor_id;sensor_type;location;lat;lon;timestamp;P1;durP1;ratioP1;P2;durP2;ratioP2
5060;SDS011;2549;52.128;21.068;2022-12-05T00:01:18;17.52;;;8.85;;
5060;SDS011;2549;52.128;21.068;2022-12-05T00:03:52;14.00;;;8.10;;
5060;SDS011;2549;52.128;21.068;2022-12-05T00:06:21;14.10;;;9.50;;
5060;SDS011;2549;52.128;21.068;2022-12-05T00:08:49;13.25;;;7.78;;
5060;SDS011;2549;52.128;21.068;2022-12-05T00:11:18;22.50;;;8.25;;
5060;SDS011;2549;52.128;21.068;2022-12-05T00:13:46;12.73;;;8.32;;
5060;SDS011;2549;52.128;21.068;2022-12-05T00:16:14;12.60;;;8.68;;
5060;SDS011;2549;52.128;21.068;2022-12-05T00:18:44;11.25;;;7.97;;
5060;SDS011;2549;52.128;21.068;2022-12-05T00:21:30;14.00;;;8.15;;
5060;SDS011;2549;52.128;21.068;2022-12-05T00:23:58;11.40;;;8.43;;
5060;SDS011;2549;52.128;21.068;2022-12-05T00:26:26;14.02;;;8.30;;
5060;SDS011;2549;52.128;21.068;2022-12-05T00:28:53;11.77;;;7.50;;
5060;SDS011;2549;52.128;21.068;2022-12-05T00:31:22;18.77;;;9.20;;
5060;SDS011;2549;52.128;21.068;2022-12-05T00:33:50;12.95;;;8.70;;
5060;SDS011;2549;52.128;21.068;2022-12-05T00:36:25;9.40;;;7.65;;
5060;SDS011;2549;52.128;21.068;2022-12-05T00:38:54;13.77;;;8.55;;
5060;SDS011;2549;52.128;21.068;2022-12-05T00:41:24;10.65;;;7.75;;
5060;SDS011;2549;52.128;21.068;2022-12-05T00:43:52;13.05;;;8.60;;
5060;SDS011;2549;52.128;21.068;2022-12-05T00:46:22;11.95;;;9.00;;
5060;SDS011;2549;52.128;21.068;2022-12-05T00:48:51;15.32;;;8.80;;
5060;SDS011;2549;52.128;21.068;2022-12-05T00:51:20;12.90;;;8.48;;
5060;SDS011;2549;52.128;21.068;2022-12-05T00:53:49;12.13;;;8.65;;
5060;SDS011;2549;52.128;21.068;2022-12-05T00:56:17;14.40;;;8.02;;
5060;SDS011;2549;52.128;21.068;2022-12-05T00:58:49;19.15;;;8.40;;
5060;SDS011;2549;52.128;21.068;2022-12-05T01:01:22;12.88;;;8.50;;
5060;SDS011;2549;52.128;21.068;2022-12-05T01:03:56;14.25;;;8.48;;
5060;SDS011;2549;52.128;21.068;2022-12-05T01:06:24;13.25;;;8.77;;
5060;SDS011;2549;52.128;21.068;2022-12-05T01:08:53;12.27;;;8.73;;
5060;SDS011;2549;52.128;21.068;2022-12-05T01:11:21;17.60;;;8.90;;
5060;SDS011;2549;52.128;21.068;2022-12-05T01:13:49;15.55;;;8.38;;
5060;SDS011;2549;52.128;21.068;2022-12-05T01:16:18;15.13;;;9.57;;
5060;SDS011;2549;52.128;21.068;2022-12-05T01:18:47;12.43;;;7.63;;
5060;SDS011;2549;52.128;21.068;2022-12-05T01:21:14;15.57;;;8.70;;
5060;SDS011;2549;52.128;21.068;2022-12-05T01:23:41;14.75;;;8.65;;
5060;SDS011;2549;52.128;21.068;2022-12-05T01:26:10;15.18;;;9.25;;
5060;SDS011;2549;52.128;21.068;2022-12-05T01:28:40;14.38;;;9.05;;
5060;SDS011;2549;52.128;21.068;2022-12-05T01:33:51;21.60;;;9.70;;
5060;SDS011;2549;52.128;21.068;2022-12-05T01:36:19;15.70;;;9.20;;
5060;SDS011;2549;52.128;21.068;2022-12-05T01:38:47;16.55;;;10.38;;
5060;SDS011;2549;52.128;21.068;2022-12-05T01:41:22;18.38;;;8.95;;
5060;SDS011;2549;52.128;21.068;2022-12-05T01:44:04;19.25;;;9.85;;
5060;SDS011;2549;52.128;21.068;2022-12-05T01:46:32;17.15;;;8.93;;
5060;SDS011;2549;52.128;21.068;2022-12-05T01:49:08;15.65;;;8.00;;
5060;SDS011;2549;52.128;21.068;2022-12-05T01:51:40;12.90;;;8.75;;
5060;SDS011;2549;52.128;21.068;2022-12-05T01:54:11;13.48;;;8.80;;
5060;SDS011;2549;52.128;21.068;2022-12-05T01:56:40;19.15;;;9.40;;
5060;SDS011;2549;52.128;21.068;2022-12-05T01:59:11;12.25;;;7.55;;
5060;SDS011;2549;52.128;21.068;2022-12-05T02:01:39;13.70;;;8.30;;
5060;SDS011;2549;52.128;21.068;2022-12-05T02:04:06;13.20;;;8.70;;
5060;SDS011;2549;52.128;21.068;2022-12-05T02:06:35;15.80;;;8.70;;
5060;SDS011;2549;52.128;21.068;2022-12-05T02:09:02;13.10;;;8.95;;
5060;SDS011;2549;52.128;21.068;2022-12-05T02:11:29;11.93;;;7.50;;
5060;SDS011;2549;52.128;21.068;2022-12-05T02:14:11;11.43;;;8.05;;
5060;SDS011;2549;52.128;21.068;2022-12-05T02:19:58;13.50;;;7.97;;
5060;SDS011;2549;52.128;21.068;2022-12-05T02:31:22;10.90;;;6.85;;
5060;SDS011;2549;52.128;21.068;2022-12-05T02:33:58;11.88;;;7.03;;
5060;SDS011;2549;52.128;21.068;2022-12-05T02:36:43;11.82;;;7.75;;
5060;SDS011;2549;52.128;21.068;2022-12-05T02:41:45;8.65;;;6.80;;
5060;SDS011;2549;52.128;21.068;2022-12-05T02:44:22;10.05;;;7.28;;
5060;SDS011;2549;52.128;21.068;2022-12-05T02:46:58;10.63;;;7.25;;
5060;SDS011;2549;52.128;21.068;2022-12-05T02:49:28;11.70;;;7.18;;
5060;SDS011;2549;52.128;21.068;2022-12-05T02:51:58;9.13;;;6.50;;
5060;SDS011;2549;52.128;21.068;2022-12-05T02:54:28;18.92;;;7.57;;
5060;SDS011;2549;52.128;21.068;2022-12-05T02:57:00;8.18;;;5.88;;
5060;SDS011;2549;52.128;21.068;2022-12-05T02:59:27;11.18;;;6.47;;
5060;SDS011;2549;52.128;21.068;2022-12-05T03:01:55;11.02;;;7.15;;
5060;SDS011;2549;52.128;21.068;2022-12-05T03:04:23;17.63;;;6.63;;
5060;SDS011;2549;52.128;21.068;2022-12-05T03:07:07;10.35;;;7.07;;
5060;SDS011;2549;52.128;21.068;2022-12-05T03:09:41;11.15;;;7.03;;
5060;SDS011;2549;52.128;21.068;2022-12-05T03:15:05;11.68;;;6.75;;
5060;SDS011;2549;52.128;21.068;2022-12-05T03:18:26;9.57;;;6.65;;
5060;SDS011;2549;52.128;21.068;2022-12-05T03:20:37;8.52;;;6.20;;
5060;SDS011;2549;52.128;21.068;2022-12-05T03:23:20;9.05;;;6.63;;
5060;SDS011;2549;52.128;21.068;2022-12-05T03:28:53;9.75;;;5.95;;
5060;SDS011;2549;52.128;21.068;2022-12-05T03:34:12;10.63;;;6.40;;
5060;SDS011;2549;52.128;21.068;2022-12-05T03:36:48;7.40;;;5.78;;
5060;SDS011;2549;52.128;21.068;2022-12-05T03:39:22;7.95;;;6.35;;
5060;SDS011;2549;52.128;21.068;2022-12-05T03:50:00;9.15;;;6.43;;
5060;SDS011;2549;52.128;21.068;2022-12-05T03:52:33;10.45;;;7.20;;
5060;SDS011;2549;52.128;21.068;2022-12-05T03:55:28;8.30;;;6.22;;
5060;SDS011;2549;52.128;21.068;2022-12-05T03:58:00;11.30;;;7.25;;
5060;SDS011;2549;52.128;21.068;2022-12-05T04:00:32;10.98;;;6.53;;
5060;SDS011;2549;52.128;21.068;2022-12-05T04:03:04;8.27;;;6.15;;
5060;SDS011;2549;52.128;21.068;2022-12-05T04:08:15;9.23;;;6.75;;
5060;SDS011;2549;52.128;21.068;2022-12-05T04:10:49;12.13;;;7.30;;
5060;SDS011;2549;52.128;21.068;2022-12-05T04:13:20;12.48;;;7.22;;
5060;SDS011;2549;52.128;21.068;2022-12-05T04:15:49;10.55;;;6.68;;
5060;SDS011;2549;52.128;21.068;2022-12-05T04:18:50;8.90;;;6.40;;
5060;SDS011;2549;52.128;21.068;2022-12-05T04:21:26;9.27;;;6.28;;
5060;SDS011;2549;52.128;21.068;2022-12-05T04:24:07;8.63;;;6.45;;
5060;SDS011;2549;52.128;21.068;2022-12-05T04:27:03;12.15;;;7.05;;
5060;SDS011;2549;52.128;21.068;2022-12-05T04:32:37;9.63;;;6.22;;
5060;SDS011;2549;52.128;21.068;2022-12-05T04:35:12;7.07;;;5.57;;
5060;SDS011;2549;52.128;21.068;2022-12-05T04:37:46;8.80;;;6.43;;
5060;SDS011;2549;52.128;21.068;2022-12-05T04:40:18;7.65;;;6.18;;
5060;SDS011;2549;52.128;21.068;2022-12-05T04:42:52;7.30;;;5.38;;
5060;SDS011;2549;52.128;21.068;2022-12-05T04:45:21;7.97;;;6.07;;
5060;SDS011;2549;52.128;21.068;2022-12-05T04:47:53;8.85;;;6.10;;
5060;SDS011;2549;52.128;21.068;2022-12-05T04:50:23;6.82;;;5.22;;
5060;SDS011;2549;52.128;21.068;2022-12-05T04:52:51;7.43;;;5.95;;
5060;SDS011;2549;52.128;21.068;2022-12-05T04:55:23;6.93;;;5.90;;
5060;SDS011;2549;52.128;21.068;2022-12-05T04:57:59;9.30;;;5.90;;
5060;SDS011;2549;52.128;21.068;2022-12-05T05:00:28;7.63;;;5.43;;
5060;SDS011;2549;52.128;21.068;2022-12-05T05:06:04;6.20;;;5.50;;
5060;SDS011;2549;52.128;21.068;2022-12-05T05:08:32;7.32;;;5.78;;
5060;SDS011;2549;52.128;21.068;2022-12-05T05:11:07;13.98;;;6.72;;
5060;SDS011;2549;52.128;21.068;2022-12-05T05:13:48;6.57;;;5.80;;
5060;SDS011;2549;52.128;21.068;2022-12-05T05:16:35;11.85;;;6.28;;
5060;SDS011;2549;52.128;21.068;2022-12-05T05:19:04;10.20;;;6.57;;
5060;SDS011;2549;52.128;21.068;2022-12-05T05:21:36;8.85;;;6.40;;
5060;SDS011;2549;52.128;21.068;2022-12-05T05:24:04;9.93;;;6.70;;
5060;SDS011;2549;52.128;21.068;2022-12-05T05:26:35;7.40;;;6.30;;
5060;SDS011;2549;52.128;21.068;2022-12-05T05:29:06;6.65;;;5.22;;
5060;SDS011;2549;52.128;21.068;2022-12-05T05:31:35;7.18;;;5.63;;
5060;SDS011;2549;52.128;21.068;2022-12-05T05:34:03;11.60;;;5.22;;
5060;SDS011;2549;52.128;21.068;2022-12-05T05:36:34;7.95;;;6.18;;
5060;SDS011;2549;52.128;21.068;2022-12-05T05:39:02;6.57;;;5.75;;
5060;SDS011;2549;52.128;21.068;2022-12-05T05:41:31;7.78;;;5.45;;
5060;SDS011;2549;52.128;21.068;2022-12-05T05:43:59;12.07;;;6.32;;
5060;SDS011;2549;52.128;21.068;2022-12-05T05:46:28;8.23;;;5.97;;
5060;SDS011;2549;52.128;21.068;2022-12-05T05:48:56;11.05;;;6.78;;
5060;SDS011;2549;52.128;21.068;2022-12-05T05:51:23;8.48;;;6.47;;
5060;SDS011;2549;52.128;21.068;2022-12-05T05:53:54;7.20;;;5.63;;
5060;SDS011;2549;52.128;21.068;2022-12-05T05:56:22;13.45;;;6.65;;
5060;SDS011;2549;52.128;21.068;2022-12-05T05:58:55;6.85;;;5.35;;
5060;SDS011;2549;52.128;21.068;2022-12-05T06:01:27;9.65;;;6.70;;
5060;SDS011;2549;52.128;21.068;2022-12-05T06:03:55;7.82;;;6.00;;
5060;SDS011;2549;52.128;21.068;2022-12-05T06:06:23;10.18;;;6.65;;
5060;SDS011;2549;52.128;21.068;2022-12-05T06:08:50;9.73;;;5.65;;
5060;SDS011;2549;52.128;21.068;2022-12-05T06:11:18;8.73;;;6.00;;
5060;SDS011;2549;52.128;21.068;2022-12-05T06:13:52;8.45;;;6.03;;
5060;SDS011;2549;52.128;21.068;2022-12-05T06:16:20;6.50;;;5.35;;
5060;SDS011;2549;52.128;21.068;2022-12-05T06:18:48;9.13;;;6.10;;
5060;SDS011;2549;52.128;21.068;2022-12-05T06:21:15;13.20;;;5.90;;
5060;SDS011;2549;52.128;21.068;2022-12-05T06:23:43;8.75;;;5.70;;
5060;SDS011;2549;52.128;21.068;2022-12-05T06:26:11;6.32;;;5.72;;
5060;SDS011;2549;52.128;21.068;2022-12-05T06:28:39;9.30;;;6.50;;
5060;SDS011;2549;52.128;21.068;2022-12-05T06:31:07;7.75;;;6.00;;
5060;SDS011;2549;52.128;21.068;2022-12-05T06:33:36;8.20;;;6.18;;
5060;SDS011;2549;52.128;21.068;2022-12-05T06:36:04;8.30;;;6.10;;
5060;SDS011;2549;52.128;21.068;2022-12-05T06:38:32;8.05;;;5.78;;
5060;SDS011;2549;52.128;21.068;2022-12-05T06:41:06;8.55;;;6.10;;
5060;SDS011;2549;52.128;21.068;2022-12-05T06:43:34;10.25;;;6.75;;
5060;SDS011;2549;52.128;21.068;2022-12-05T06:46:04;8.45;;;6.38;;
5060;SDS011;2549;52.128;21.068;2022-12-05T06:48:32;8.95;;;6.55;;
5060;SDS011;2549;52.128;21.068;2022-12-05T06:51:00;9.10;;;6.65;;
5060;SDS011;2549;52.128;21.068;2022-12-05T06:53:27;10.70;;;6.60;;
5060;SDS011;2549;52.128;21.068;2022-12-05T06:55:58;7.75;;;6.10;;
5060;SDS011;2549;52.128;21.068;2022-12-05T06:58:27;14.40;;;7.03;;
5060;SDS011;2549;52.128;21.068;2022-12-05T07:00:54;10.45;;;6.55;;
5060;SDS011;2549;52.128;21.068;2022-12-05T07:03:40;7.38;;;6.38;;
5060;SDS011;2549;52.128;21.068;2022-12-05T07:06:09;8.48;;;5.60;;
5060;SDS011;2549;52.128;21.068;2022-12-05T07:08:36;11.23;;;7.50;;
5060;SDS011;2549;52.128;21.068;2022-12-05T07:11:03;12.18;;;7.18;;
5060;SDS011;2549;52.128;21.068;2022-12-05T07:13:30;10.48;;;6.88;;
5060;SDS011;2549;52.128;21.068;2022-12-05T07:15:57;11.85;;;6.93;;
5060;SDS011;2549;52.128;21.068;2022-12-05T07:18:25;12.35;;;7.30;;
5060;SDS011;2549;52.128;21.068;2022-12-05T07:20:56;11.93;;;7.60;;
5060;SDS011;2549;52.128;21.068;2022-12-05T07:23:40;8.60;;;6.07;;
5060;SDS011;2549;52.128;21.068;2022-12-05T07:26:09;10.18;;;6.65;;
5060;SDS011;2549;52.128;21.068;2022-12-05T07:28:39;12.98;;;6.40;;
5060;SDS011;2549;52.128;21.068;2022-12-05T07:31:07;11.98;;;7.53;;
5060;SDS011;2549;52.128;21.068;2022-12-05T07:33:36;10.65;;;6.70;;
5060;SDS011;2549;52.128;21.068;2022-12-05T07:36:08;11.57;;;7.57;;
5060;SDS011;2549;52.128;21.068;2022-12-05T07:38:37;9.52;;;6.25;;
5060;SDS011;2549;52.128;21.068;2022-12-05T07:41:09;14.27;;;7.53;;
5060;SDS011;2549;52.128;21.068;2022-12-05T07:43:40;10.15;;;7.07;;
5060;SDS011;2549;52.128;21.068;2022-12-05T07:46:08;9.35;;;6.90;;
5060;SDS011;2549;52.128;21.068;2022-12-05T07:48:38;12.23;;;6.50;;
5060;SDS011;2549;52.128;21.068;2022-12-05T07:51:06;9.55;;;6.35;;
5060;SDS011;2549;52.128;21.068;2022-12-05T07:53:34;12.02;;;7.85;;
5060;SDS011;2549;52.128;21.068;2022-12-05T07:56:03;15.70;;;7.28;;
5060;SDS011;2549;52.128;21.068;2022-12-05T07:58:32;13.40;;;7.88;;
5060;SDS011;2549;52.128;21.068;2022-12-05T08:01:12;10.82;;;6.85;;
5060;SDS011;2549;52.128;21.068;2022-12-05T08:03:44;12.80;;;7.95;;
5060;SDS011;2549;52.128;21.068;2022-12-05T08:06:15;15.65;;;7.20;;
5060;SDS011;2549;52.128;21.068;2022-12-05T08:08:44;12.13;;;7.15;;
5060;SDS011;2549;52.128;21.068;2022-12-05T08:11:16;11.93;;;7.43;;
5060;SDS011;2549;52.128;21.068;2022-12-05T08:13:44;10.75;;;6.82;;
5060;SDS011;2549;52.128;21.068;2022-12-05T08:16:12;8.60;;;6.13;;
5060;SDS011;2549;52.128;21.068;2022-12-05T08:18:42;14.15;;;7.63;;
5060;SDS011;2549;52.128;21.068;2022-12-05T08:21:10;11.20;;;7.38;;
5060;SDS011;2549;52.128;21.068;2022-12-05T08:23:43;9.48;;;6.78;;
5060;SDS011;2549;52.128;21.068;2022-12-05T08:26:11;9.02;;;6.95;;
5060;SDS011;2549;52.128;21.068;2022-12-05T08:28:40;10.80;;;6.90;;
5060;SDS011;2549;52.128;21.068;2022-12-05T08:31:10;15.77;;;7.03;;
5060;SDS011;2549;52.128;21.068;2022-12-05T08:33:41;16.88;;;7.50;;
5060;SDS011;2549;52.128;21.068;2022-12-05T08:36:10;8.82;;;5.95;;
5060;SDS011;2549;52.128;21.068;2022-12-05T08:38:38;11.35;;;6.78;;
5060;SDS011;2549;52.128;21.068;2022-12-05T08:41:14;9.75;;;6.43;;
5060;SDS011;2549;52.128;21.068;2022-12-05T08:43:43;10.77;;;6.88;;
5060;SDS011;2549;52.128;21.068;2022-12-05T08:46:10;11.32;;;7.50;;
5060;SDS011;2549;52.128;21.068;2022-12-05T08:48:37;10.90;;;6.63;;
5060;SDS011;2549;52.128;21.068;2022-12-05T08:51:08;9.13;;;6.43;;
5060;SDS011;2549;52.128;21.068;2022-12-05T08:53:36;11.20;;;6.82;;
5060;SDS011;2549;52.128;21.068;2022-12-05T08:56:09;8.50;;;6.75;;
5060;SDS011;2549;52.128;21.068;2022-12-05T08:58:37;9.55;;;7.50;;
5060;SDS011;2549;52.128;21.068;2022-12-05T09:03:38;9.18;;;6.70;;
5060;SDS011;2549;52.128;21.068;2022-12-05T09:06:13;10.38;;;7.75;;
5060;SDS011;2549;52.128;21.068;2022-12-05T09:08:54;9.38;;;6.40;;
5060;SDS011;2549;52.128;21.068;2022-12-05T09:11:23;12.80;;;8.30;;
5060;SDS011;2549;52.128;21.068;2022-12-05T09:13:52;9.85;;;7.15;;
5060;SDS011;2549;52.128;21.068;2022-12-05T09:16:21;14.30;;;7.63;;
5060;SDS011;2549;52.128;21.068;2022-12-05T09:18:50;13.68;;;7.88;;
5060;SDS011;2549;52.128;21.068;2022-12-05T09:21:18;9.35;;;6.35;;
5060;SDS011;2549;52.128;21.068;2022-12-05T09:23:47;13.30;;;8.23;;
5060;SDS011;2549;52.128;21.068;2022-12-05T09:26:15;8.95;;;6.53;;
5060;SDS011;2549;52.128;21.068;2022-12-05T09:28:46;14.15;;;7.50;;
5060;SDS011;2549;52.128;21.068;2022-12-05T09:31:17;13.80;;;8.00;;
5060;SDS011;2549;52.128;21.068;2022-12-05T09:33:47;13.02;;;7.30;;
5060;SDS011;2549;52.128;21.068;2022-12-05T09:36:16;13.07;;;8.52;;
5060;SDS011;2549;52.128;21.068;2022-12-05T09:38:45;15.75;;;8.65;;
5060;SDS011;2549;52.128;21.068;2022-12-05T09:44:11;14.98;;;8.52;;
5060;SDS011;2549;52.128;21.068;2022-12-05T09:46:54;13.10;;;7.82;;
5060;SDS011;2549;52.128;21.068;2022-12-05T09:49:26;17.27;;;8.75;;
5060;SDS011;2549;52.128;21.068;2022-12-05T09:51:55;13.80;;;7.80;;
5060;SDS011;2549;52.128;21.068;2022-12-05T09:54:25;14.70;;;7.95;;
5060;SDS011;2549;52.128;21.068;2022-12-05T09:56:53;17.52;;;7.75;;
5060;SDS011;2549;52.128;21.068;2022-12-05T09:59:20;14.40;;;9.05;;
5060;SDS011;2549;52.128;21.068;2022-12-05T10:15:18;16.55;;;8.70;;
5060;SDS011;2549;52.128;21.068;2022-12-05T10:21:22;16.02;;;7.85;;
5060;SDS011;2549;52.128;21.068;2022-12-05T10:23:34;16.38;;;9.23;;
5060;SDS011;2549;52.128;21.068;2022-12-05T10:26:33;16.40;;;8.93;;
5060;SDS011;2549;52.128;21.068;2022-12-05T10:31:34;12.32;;;7.53;;
5060;SDS011;2549;52.128;21.068;2022-12-05T10:34:08;13.77;;;8.50;;
5060;SDS011;2549;52.128;21.068;2022-12-05T10:36:40;18.35;;;8.27;;
5060;SDS011;2549;52.128;21.068;2022-12-05T10:39:18;17.00;;;9.80;;
5060;SDS011;2549;52.128;21.068;2022-12-05T10:41:45;17.45;;;9.60;;
5060;SDS011;2549;52.128;21.068;2022-12-05T10:44:12;17.52;;;9.00;;
5060;SDS011;2549;52.128;21.068;2022-12-05T10:46:39;13.95;;;9.23;;
5060;SDS011;2549;52.128;21.068;2022-12-05T10:49:15;14.05;;;9.43;;
5060;SDS011;2549;52.128;21.068;2022-12-05T10:51:42;18.90;;;9.38;;
5060;SDS011;2549;52.128;21.068;2022-12-05T10:54:15;25.08;;;7.90;;
5060;SDS011;2549;52.128;21.068;2022-12-05T10:56:49;13.77;;;9.15;;
5060;SDS011;2549;52.128;21.068;2022-12-05T10:59:19;13.57;;;8.43;;
5060;SDS011;2549;52.128;21.068;2022-12-05T11:01:55;15.38;;;9.30;;
5060;SDS011;2549;52.128;21.068;2022-12-05T11:09:34;18.00;;;9.52;;
5060;SDS011;2549;52.128;21.068;2022-12-05T11:12:24;15.43;;;9.32;;
5060;SDS011;2549;52.128;21.068;2022-12-05T11:14:56;18.42;;;9.35;;
5060;SDS011;2549;52.128;21.068;2022-12-05T11:17:54;21.73;;;10.25;;
5060;SDS011;2549;52.128;21.068;2022-12-05T11:22:50;17.33;;;9.40;;
5060;SDS011;2549;52.128;21.068;2022-12-05T11:25:23;17.00;;;10.27;;
5060;SDS011;2549;52.128;21.068;2022-12-05T11:27:50;14.88;;;9.13;;
5060;SDS011;2549;52.128;21.068;2022-12-05T11:30:23;20.63;;;9.02;;
5060;SDS011;2549;52.128;21.068;2022-12-05T11:35:46;17.85;;;9.82;;
5060;SDS011;2549;52.128;21.068;2022-12-05T11:38:14;21.00;;;11.02;;
5060;SDS011;2549;52.128;21.068;2022-12-05T11:52:20;16.85;;;9.43;;
5060;SDS011;2549;52.128;21.068;2022-12-05T11:54:55;19.00;;;9.88;;
5060;SDS011;2549;52.128;21.068;2022-12-05T12:00:35;17.90;;;9.70;;
5060;SDS011;2549;52.128;21.068;2022-12-05T12:08:38;17.55;;;9.38;;
5060;SDS011;2549;52.128;21.068;2022-12-05T12:11:17;21.23;;;10.18;;
5060;SDS011;2549;52.128;21.068;2022-12-05T12:13:58;18.67;;;10.13;;
5060;SDS011;2549;52.128;21.068;2022-12-05T12:19:28;20.33;;;10.43;;
5060;SDS011;2549;52.128;21.068;2022-12-05T12:30:34;19.90;;;10.90;;
5060;SDS011;2549;52.128;21.068;2022-12-05T12:33:16;15.95;;;9.13;;
5060;SDS011;2549;52.128;21.068;2022-12-05T12:35:57;17.63;;;10.10;;
5060;SDS011;2549;52.128;21.068;2022-12-05T12:38:37;21.77;;;10.50;;
5060;SDS011;2549;52.128;21.068;2022-12-05T12:47:00;22.90;;;11.45;;
5060;SDS011;2549;52.128;21.068;2022-12-05T12:52:03;19.25;;;11.02;;
5060;SDS011;2549;52.128;21.068;2022-12-05T13:03:51;25.00;;;12.25;;
5060;SDS011;2549;52.128;21.068;2022-12-05T13:06:32;20.52;;;12.00;;
5060;SDS011;2549;52.128;21.068;2022-12-05T13:09:07;24.95;;;11.60;;
5060;SDS011;2549;52.128;21.068;2022-12-05T13:11:38;21.40;;;10.75;;
5060;SDS011;2549;52.128;21.068;2022-12-05T13:14:12;20.67;;;11.20;;
5060;SDS011;2549;52.128;21.068;2022-12-05T13:16:42;27.05;;;11.50;;
5060;SDS011;2549;52.128;21.068;2022-12-05T13:19:20;21.67;;;11.95;;
5060;SDS011;2549;52.128;21.068;2022-12-05T13:22:03;27.42;;;12.68;;
5060;SDS011;2549;52.128;21.068;2022-12-05T13:24:32;23.90;;;12.93;;
5060;SDS011;2549;52.128;21.068;2022-12-05T13:27:06;22.58;;;10.95;;
5060;SDS011;2549;52.128;21.068;2022-12-05T13:29:37;20.98;;;12.07;;
5060;SDS011;2549;52.128;21.068;2022-12-05T13:32:29;20.40;;;11.65;;
5060;SDS011;2549;52.128;21.068;2022-12-05T13:38:31;27.08;;;11.30;;
5060;SDS011;2549;52.128;21.068;2022-12-05T13:41:37;22.42;;;10.85;;
5060;SDS011;2549;52.128;21.068;2022-12-05T13:44:34;28.60;;;9.38;;
5060;SDS011;2549;52.128;21.068;2022-12-05T13:50:34;26.00;;;11.45;;
5060;SDS011;2549;52.128;21.068;2022-12-05T13:53:42;16.67;;;9.65;;
5060;SDS011;2549;52.128;21.068;2022-12-05T14:03:59;22.73;;;11.25;;
5060;SDS011;2549;52.128;21.068;2022-12-05T14:17:23;25.42;;;10.00;;
5060;SDS011;2549;52.128;21.068;2022-12-05T14:20:09;21.15;;;10.93;;
5060;SDS011;2549;52.128;21.068;2022-12-05T14:25:55;19.52;;;9.75;;
5060;SDS011;2549;52.128;21.068;2022-12-05T14:36:54;22.98;;;12.68;;
5060;SDS011;2549;52.128;21.068;2022-12-05T14:39:32;20.67;;;11.80;;
5060;SDS011;2549;52.128;21.068;2022-12-05T14:47:51;22.50;;;11.80;;
5060;SDS011;2549;52.128;21.068;2022-12-05T14:50:33;20.55;;;11.52;;
5060;SDS011;2549;52.128;21.068;2022-12-05T14:55:42;23.55;;;11.48;;
5060;SDS011;2549;52.128;21.068;2022-12-05T14:58:15;24.38;;;11.70;;
5060;SDS011;2549;52.128;21.068;2022-12-05T15:00:59;24.17;;;12.73;;
5060;SDS011;2549;52.128;21.068;2022-12-05T15:03:35;19.58;;;11.05;;
5060;SDS011;2549;52.128;21.068;2022-12-05T15:06:05;21.00;;;11.10;;
5060;SDS011;2549;52.128;21.068;2022-12-05T15:08:44;23.23;;;11.70;;
5060;SDS011;2549;52.128;21.068;2022-12-05T15:11:17;21.80;;;11.85;;
5060;SDS011;2549;52.128;21.068;2022-12-05T15:13:57;21.85;;;11.13;;
5060;SDS011;2549;52.128;21.068;2022-12-05T15:16:28;22.95;;;11.50;;
5060;SDS011;2549;52.128;21.068;2022-12-05T15:18:58;22.40;;;11.07;;
5060;SDS011;2549;52.128;21.068;2022-12-05T15:21:35;19.77;;;10.95;;
5060;SDS011;2549;52.128;21.068;2022-12-05T15:24:11;29.23;;;10.88;;
5060;SDS011;2549;52.128;21.068;2022-12-05T15:26:51;23.42;;;10.80;;
5060;SDS011;2549;52.128;21.068;2022-12-05T15:29:26;25.08;;;10.40;;
5060;SDS011;2549;52.128;21.068;2022-12-05T15:34:27;17.38;;;10.30;;
5060;SDS011;2549;52.128;21.068;2022-12-05T15:42:45;24.63;;;11.23;;
5060;SDS011;2549;52.128;21.068;2022-12-05T15:45:17;28.98;;;12.20;;
5060;SDS011;2549;52.128;21.068;2022-12-05T15:47:49;23.95;;;11.27;;
5060;SDS011;2549;52.128;21.068;2022-12-05T15:53:00;21.88;;;11.18;;
5060;SDS011;2549;52.128;21.068;2022-12-05T16:00:59;27.35;;;12.52;;
5060;SDS011;2549;52.128;21.068;2022-12-05T16:06:00;23.63;;;11.27;;
5060;SDS011;2549;52.128;21.068;2022-12-05T16:08:31;23.65;;;11.18;;
5060;SDS011;2549;52.128;21.068;2022-12-05T16:11:09;22.27;;;11.60;;
5060;SDS011;2549;52.128;21.068;2022-12-05T16:13:41;22.20;;;11.88;;
5060;SDS011;2549;52.128;21.068;2022-12-05T16:16:14;23.10;;;11.73;;
5060;SDS011;2549;52.128;21.068;2022-12-05T16:18:51;21.65;;;11.88;;
5060;SDS011;2549;52.128;21.068;2022-12-05T16:21:26;20.90;;;11.55;;
5060;SDS011;2549;52.128;21.068;2022-12-05T16:24:16;27.17;;;11.85;;
5060;SDS011;2549;52.128;21.068;2022-12-05T16:26:59;21.58;;;11.95;;
5060;SDS011;2549;52.128;21.068;2022-12-05T16:29:29;23.60;;;12.02;;
5060;SDS011;2549;52.128;21.068;2022-12-05T16:32:02;28.05;;;12.75;;
5060;SDS011;2549;52.128;21.068;2022-12-05T16:34:32;23.83;;;12.27;;
5060;SDS011;2549;52.128;21.068;2022-12-05T16:36:59;28.85;;;12.60;;
5060;SDS011;2549;52.128;21.068;2022-12-05T16:39:26;29.33;;;12.10;;
5060;SDS011;2549;52.128;21.068;2022-12-05T16:41:53;22.17;;;12.35;;
5060;SDS011;2549;52.128;21.068;2022-12-05T16:46:54;21.67;;;11.65;;
5060;SDS011;2549;52.128;21.068;2022-12-05T16:49:34;27.90;;;13.48;;
5060;SDS011;2549;52.128;21.068;2022-12-05T16:52:12;28.05;;;11.75;;
5060;SDS011;2549;52.128;21.068;2022-12-05T16:54:40;22.70;;;11.50;;
5060;SDS011;2549;52.128;21.068;2022-12-05T16:57:11;21.55;;;11.10;;
5060;SDS011;2549;52.128;21.068;2022-12-05T16:59:40;22.70;;;11.35;;
5060;SDS011;2549;52.128;21.068;2022-12-05T17:02:12;23.50;;;12.63;;
5060;SDS011;2549;52.128;21.068;2022-12-05T17:04:40;19.15;;;11.73;;
5060;SDS011;2549;52.128;21.068;2022-12-05T17:07:07;24.08;;;13.15;;
5060;SDS011;2549;52.128;21.068;2022-12-05T17:09:34;33.00;;;13.85;;
5060;SDS011;2549;52.128;21.068;2022-12-05T17:12:04;22.08;;;11.93;;
5060;SDS011;2549;52.128;21.068;2022-12-05T17:14:48;29.13;;;13.63;;
5060;SDS011;2549;52.128;21.068;2022-12-05T17:17:15;30.30;;;13.10;;
5060;SDS011;2549;52.128;21.068;2022-12-05T17:19:43;24.45;;;12.10;;
5060;SDS011;2549;52.128;21.068;2022-12-05T17:22:11;25.75;;;13.32;;
5060;SDS011;2549;52.128;21.068;2022-12-05T17:24:39;28.52;;;13.90;;
5060;SDS011;2549;52.128;21.068;2022-12-05T17:27:10;21.67;;;11.20;;
5060;SDS011;2549;52.128;21.068;2022-12-05T17:29:37;25.42;;;13.55;;
5060;SDS011;2549;52.128;21.068;2022-12-05T17:32:04;26.00;;;14.02;;
5060;SDS011;2549;52.128;21.068;2022-12-05T17:34:31;24.98;;;13.10;;
5060;SDS011;2549;52.128;21.068;2022-12-05T17:36:58;20.15;;;11.75;;
5060;SDS011;2549;52.128;21.068;2022-12-05T17:39:25;20.67;;;12.40;;
5060;SDS011;2549;52.128;21.068;2022-12-05T17:41:54;21.88;;;12.68;;
5060;SDS011;2549;52.128;21.068;2022-12-05T17:44:21;22.60;;;13.10;;
5060;SDS011;2549;52.128;21.068;2022-12-05T17:46:48;26.45;;;12.88;;
5060;SDS011;2549;52.128;21.068;2022-12-05T17:49:15;22.17;;;12.40;;
5060;SDS011;2549;52.128;21.068;2022-12-05T17:51:43;25.08;;;13.20;;
5060;SDS011;2549;52.128;21.068;2022-12-05T17:54:30;24.83;;;13.10;;
5060;SDS011;2549;52.128;21.068;2022-12-05T17:56:57;22.17;;;12.40;;
5060;SDS011;2549;52.128;21.068;2022-12-05T17:59:24;23.85;;;11.73;;
5060;SDS011;2549;52.128;21.068;2022-12-05T18:01:51;24.80;;;13.00;;
5060;SDS011;2549;52.128;21.068;2022-12-05T18:04:17;23.95;;;12.60;;
5060;SDS011;2549;52.128;21.068;2022-12-05T18:06:48;25.90;;;13.27;;
5060;SDS011;2549;52.128;21.068;2022-12-05T18:09:15;22.45;;;11.82;;
5060;SDS011;2549;52.128;21.068;2022-12-05T18:11:42;23.88;;;10.75;;
5060;SDS011;2549;52.128;21.068;2022-12-05T18:14:09;22.27;;;12.60;;
5060;SDS011;2549;52.128;21.068;2022-12-05T18:16:36;23.08;;;12.38;;
5060;SDS011;2549;52.128;21.068;2022-12-05T18:19:03;16.05;;;11.30;;
5060;SDS011;2549;52.128;21.068;2022-12-05T18:21:30;22.40;;;13.02;;
5060;SDS011;2549;52.128;21.068;2022-12-05T18:23:57;21.98;;;12.82;;
5060;SDS011;2549;52.128;21.068;2022-12-05T18:26:24;23.77;;;13.30;;
5060;SDS011;2549;52.128;21.068;2022-12-05T18:28:51;30.10;;;13.60;;